Time;durP1;ratioP1;P1;durP2;ratioP2;P2;SDS_P1;SDS_P2;PMS_P1;PMS_P2;Temp;Humidity;BMP_temperature;BMP_pressure;BME280_temperature;BME280_humidity;BME280_pressure;Samples;Min_cycle;Max_cycle;Signal;HPM_P1;HPM_P2
2023/05/13 00:01:11;;;;;;;17.17;13.82;;;14.90;86.30;;;14.18;68.46;100901.59;4988502;28;20050;-79
2023/05/13 00:03:38;;;;;;;18.75;13.30;;;14.90;86.10;;;14.17;68.46;100899.97;4982816;28;20038;-81
2023/05/13 00:06:06;;;;;;;16.35;13.77;;;14.90;86.10;;;14.14;68.47;100901.22;4989065;28;20072;-81
2023/05/13 00:08:34;;;;;;;17.38;13.40;;;14.90;86.00;;;14.13;68.32;100904.13;4985282;28;20044;-81
2023/05/13 00:11:01;;;;;;;18.15;13.50;;;14.90;85.80;;;14.12;68.17;100906.00;4988475;28;20084;-80
2023/05/13 00:13:29;;;;;;;21.60;13.90;;;14.80;85.70;;;14.10;68.20;100900.03;4988096;28;20849;-81
2023/05/13 00:15:56;;;;;;;18.20;14.10;;;14.80;85.70;;;14.09;67.95;100908.28;4989355;28;20109;-81
2023/05/13 00:18:23;;;;;;;21.60;14.48;;;14.80;85.50;;;14.07;67.96;100897.81;4988115;28;20050;-80
2023/05/13 00:20:50;;;;;;;17.50;12.70;;;14.80;85.50;;;14.05;67.94;100902.56;4975771;28;20053;-81
2023/05/13 00:23:17;;;;;;;21.50;14.80;;;14.80;85.40;;;14.05;68.03;100901.72;4977310;28;20059;-80
2023/05/13 00:25:46;;;;;;;18.42;13.95;;;14.80;85.70;;;14.03;67.98;100893.91;4986859;28;20034;-80
2023/05/13 00:28:14;;;;;;;18.98;13.98;;;14.70;85.60;;;14.03;67.97;100901.16;4981439;28;20078;-80
2023/05/13 00:30:42;;;;;;;19.80;13.55;;;14.70;85.60;;;14.00;67.91;100897.03;4970429;28;20403;-81
2023/05/13 00:33:10;;;;;;;19.85;14.35;;;14.70;85.60;;;13.99;67.84;100902.63;4988517;28;20046;-79
2023/05/13 00:35:37;;;;;;;19.38;14.10;;;14.70;85.70;;;13.97;68.02;100902.06;4969416;28;20565;-80
2023/05/13 00:38:04;;;;;;;18.33;14.23;;;14.60;85.70;;;13.95;67.97;100902.25;4985051;28;20125;-80
2023/05/13 00:40:33;;;;;;;18.35;14.48;;;14.60;85.70;;;13.94;67.86;100905.16;4988606;28;20184;-81
2023/05/13 00:43:02;;;;;;;23.95;14.27;;;14.60;85.70;;;13.91;67.92;100907.25;4982159;28;20134;-81
2023/05/13 00:45:29;;;;;;;18.30;13.43;;;14.60;85.70;;;13.91;67.88;100903.75;4988936;28;20046;-80
2023/05/13 00:47:56;;;;;;;19.45;14.65;;;14.60;85.70;;;13.90;67.96;100899.41;4977101;28;20114;-79
2023/05/13 00:50:24;;;;;;;18.35;13.45;;;14.60;85.70;;;13.89;67.87;100898.59;4984572;28;20125;-80
2023/05/13 00:52:51;;;;;;;19.65;14.05;;;14.60;85.60;;;13.88;67.75;100906.88;4984841;28;20456;-81
2023/05/13 00:55:19;;;;;;;18.20;13.30;;;14.50;85.50;;;13.86;67.66;100899.06;4993038;28;20042;-79
2023/05/13 00:57:46;;;;;;;16.77;12.85;;;14.60;85.40;;;13.84;67.57;100901.13;4983649;28;20066;-81
2023/05/13 01:00:16;;;;;;;21.73;13.20;;;14.50;85.40;;;13.83;67.58;100901.38;4971579;28;20050;-81
2023/05/13 01:02:53;;;;;;;17.85;13.60;;;14.50;85.40;;;13.83;67.65;100901.38;4982575;28;20180;-81
2023/05/13 01:05:31;;;;;;;25.00;13.77;;;14.50;85.50;;;13.80;67.45;100899.94;4986874;28;20052;-81
2023/05/13 01:08:09;;;;;;;20.95;13.73;;;14.50;85.50;;;13.79;67.86;100902.84;4963994;28;20153;-79
2023/05/13 01:13:28;;;;;;;18.90;13.07;;;14.50;85.70;;;13.76;67.99;100901.44;4967370;28;20585;-77
2023/05/13 01:16:03;;;;;;;21.83;14.02;;;14.40;85.50;;;13.76;67.66;100898.75;4968864;28;20035;-77
2023/05/13 01:18:37;;;;;;;18.42;13.18;;;14.40;85.70;;;13.74;67.79;100895.47;4949012;28;20039;-77
2023/05/13 01:21:07;;;;;;;18.80;13.60;;;14.40;85.60;;;13.73;67.79;100891.16;4953854;28;20052;-77
2023/05/13 01:23:36;;;;;;;17.42;13.35;;;14.40;85.80;;;13.73;68.01;100890.34;4970970;28;20428;-77
2023/05/13 01:26:03;;;;;;;19.25;12.85;;;14.40;85.90;;;13.71;67.98;100889.72;4957393;28;20805;-77
2023/05/13 01:28:33;;;;;;;20.90;14.32;;;14.40;85.90;;;13.71;68.20;100895.91;4945628;28;20142;-78
2023/05/13 01:31:01;;;;;;;20.13;13.35;;;14.40;86.00;;;13.69;68.10;100887.28;4975344;28;20077;-77
2023/05/13 01:33:30;;;;;;;18.63;13.75;;;14.40;85.90;;;13.69;67.90;100891.81;4948088;28;20054;-77
2023/05/13 01:35:58;;;;;;;17.95;12.85;;;14.40;85.90;;;13.67;68.11;100894.72;4956475;28;20047;-78
2023/05/13 01:38:27;;;;;;;18.20;14.13;;;14.40;85.90;;;13.67;68.12;100893.91;4960614;28;20058;-78
2023/05/13 01:41:00;;;;;;;20.85;13.77;;;14.30;85.90;;;13.64;67.88;100890.59;4960258;28;20039;-78
2023/05/13 01:43:29;;;;;;;21.83;13.30;;;14.40;85.70;;;13.64;67.88;100893.28;4945217;28;20147;-78
2023/05/13 01:45:59;;;;;;;17.05;12.73;;;14.30;85.80;;;13.64;67.82;100900.50;4951242;28;20123;-77
2023/05/13 01:48:26;;;;;;;16.55;13.25;;;14.30;85.70;;;13.63;67.81;100899.69;4948399;28;20043;-78
2023/05/13 01:50:56;;;;;;;19.95;13.30;;;14.30;85.50;;;13.61;67.40;100896.41;4955026;28;20418;-78
2023/05/13 01:53:24;;;;;;;18.63;13.05;;;14.30;85.60;;;13.59;67.57;100903.84;4958439;28;20046;-77
2023/05/13 01:55:53;;;;;;;16.30;12.65;;;14.30;85.50;;;13.58;67.57;100904.09;4975131;28;20101;-77
2023/05/13 01:58:22;;;;;;;17.52;13.23;;;14.30;85.50;;;13.56;67.50;100890.06;4965515;28;20039;-77
2023/05/13 02:00:50;;;;;;;16.17;13.45;;;14.30;85.50;;;13.54;67.28;100901.00;4931598;28;20047;-78
2023/05/13 02:03:18;;;;;;;17.58;12.60;;;14.20;85.30;;;13.52;67.23;100894.25;4939378;28;20039;-77
2023/05/13 02:05:47;;;;;;;19.33;13.18;;;14.20;85.30;;;13.48;67.41;100901.09;4968613;28;20062;-77
2023/05/13 02:08:14;;;;;;;19.50;14.07;;;14.20;85.20;;;13.45;67.33;100902.34;4954605;28;20054;-78
2023/05/13 02:10:41;;;;;;;17.33;13.43;;;14.20;85.00;;;13.42;67.08;100907.28;4947707;28;20161;-78
2023/05/13 02:13:08;;;;;;;15.70;12.63;;;14.10;84.90;;;13.38;67.03;100906.94;4958117;28;20055;-78
2023/05/13 02:15:37;;;;;;;18.67;12.48;;;14.10;84.90;;;13.36;66.88;100904.44;4978874;28;20105;-78
2023/05/13 02:18:05;;;;;;;18.27;12.02;;;14.10;84.90;;;13.33;66.88;100910.28;4953613;28;20047;-78
2023/05/13 02:20:32;;;;;;;18.52;12.10;;;14.10;84.80;;;13.32;66.54;100908.63;4975554;28;20047;-78
2023/05/13 02:23:00;;;;;;;17.75;12.80;;;14.00;84.60;;;13.28;66.55;100907.44;4963493;28;20102;-77
2023/05/13 02:25:28;;;;;;;19.05;12.05;;;14.00;84.70;;;13.26;66.59;100909.50;4961379;28;20047;-78
2023/05/13 02:27:55;;;;;;;14.32;11.90;;;14.00;84.70;;;13.24;66.69;100908.91;4954210;28;20632;-78
2023/05/13 02:30:25;;;;;;;14.23;11.38;;;13.90;84.90;;;13.22;66.58;100913.63;4951998;28;20051;-77
2023/05/13 02:32:55;;;;;;;22.38;11.85;;;13.90;84.80;;;13.19;66.51;100906.03;4971731;28;20070;-77
2023/05/13 02:35:23;;;;;;;18.17;12.18;;;13.90;84.60;;;13.18;66.34;100899.03;4953899;28;20038;-77
2023/05/13 02:37:50;;;;;;;15.85;11.65;;;13.90;84.50;;;13.17;66.43;100899.22;4954365;28;20085;-77
2023/05/13 02:40:18;;;;;;;18.80;11.85;;;13.80;84.50;;;13.13;66.45;100899.69;4952994;28;20661;-78
2023/05/13 02:42:46;;;;;;;16.58;10.95;;;13.80;84.50;;;13.13;66.42;100893.50;4967968;28;20060;-78
2023/05/13 02:45:16;;;;;;;14.63;11.63;;;13.90;84.60;;;13.10;66.26;100894.75;4954071;28;20054;-78
2023/05/13 02:47:47;;;;;;;17.88;12.00;;;13.80;84.40;;;13.09;66.20;100897.66;4962354;28;20046;-78
2023/05/13 02:50:16;;;;;;;15.23;11.52;;;13.80;84.30;;;13.06;66.09;100900.75;4972298;28;20057;-78
2023/05/13 02:52:44;;;;;;;16.48;11.93;;;13.70;84.10;;;13.04;65.95;100894.81;4961402;28;20125;-78
2023/05/13 02:55:11;;;;;;;18.55;10.88;;;13.70;84.10;;;13.02;65.84;100903.03;4953004;28;20416;-78
2023/05/13 02:57:38;;;;;;;23.80;11.73;;;13.70;84.30;;;13.01;66.08;100897.91;4967554;28;20202;-77
2023/05/13 03:00:08;;;;;;;15.40;11.20;;;13.70;84.20;;;12.98;65.89;100891.16;4952886;28;20534;-77
2023/05/13 03:02:37;;;;;;;14.85;11.55;;;13.60;83.90;;;12.96;65.72;100895.06;4960654;28;20093;-78
2023/05/13 03:05:05;;;;;;;33.67;12.75;;;13.60;83.90;;;12.93;65.89;100890.94;4957412;28;20050;-77
2023/05/13 03:07:34;;;;;;;15.20;11.80;;;13.60;83.90;;;12.92;65.88;100891.16;4954315;28;20046;-78
2023/05/13 03:10:01;;;;;;;17.30;11.73;;;13.60;83.90;;;12.89;65.74;100890.56;4967708;28;20053;-77
2023/05/13 03:12:29;;;;;;;18.17;11.98;;;13.60;83.70;;;12.88;65.70;100885.41;4959937;28;20051;-77
2023/05/13 03:14:56;;;;;;;18.17;12.55;;;13.50;83.70;;;12.85;65.42;100900.06;4949892;28;20117;-78
2023/05/13 03:17:24;;;;;;;19.02;11.88;;;13.50;83.80;;;12.83;65.60;100888.78;4968467;28;20071;-77
2023/05/13 03:19:51;;;;;;;15.82;11.55;;;13.50;83.70;;;12.81;65.20;100901.53;4955569;28;20047;-78
2023/05/13 03:22:18;;;;;;;14.93;11.25;;;13.50;83.50;;;12.79;65.24;100898.25;4967985;28;20474;-78
2023/05/13 03:24:47;;;;;;;20.60;12.77;;;13.40;83.50;;;12.77;65.23;100899.50;4978571;28;20051;-77
2023/05/13 03:27:15;;;;;;;15.38;11.52;;;13.40;83.50;;;12.74;65.40;100892.72;4952711;28;20058;-77
2023/05/13 03:29:42;;;;;;;18.15;12.82;;;13.40;83.50;;;12.71;65.32;100897.69;4957765;28;20698;-77
2023/05/13 03:32:09;;;;;;;18.38;11.50;;;13.40;83.70;;;12.69;65.46;100891.72;4952929;28;20080;-78
2023/05/13 03:34:36;;;;;;;16.98;12.50;;;13.30;83.90;;;12.68;65.47;100885.53;4951535;28;20463;-78
2023/05/13 03:37:05;;;;;;;14.57;11.98;;;13.30;83.70;;;12.65;65.51;100894.00;4949669;28;20051;-78
2023/05/13 03:39:32;;;;;;;15.82;12.85;;;13.30;83.70;;;12.64;65.35;100895.06;4969733;28;20170;-77
2023/05/13 03:42:01;;;;;;;15.85;12.45;;;13.30;83.70;;;12.63;65.27;100898.75;4957053;28;20058;-77
2023/05/13 03:44:29;;;;;;;17.45;12.65;;;13.30;83.60;;;12.60;65.38;100893.84;4970427;28;20508;-77
2023/05/13 03:46:56;;;;;;;16.85;12.77;;;13.30;83.70;;;12.59;65.42;100900.19;4952801;28;20459;-77
2023/05/13 03:49:23;;;;;;;17.83;13.73;;;13.20;83.70;;;12.58;65.48;100890.53;4968218;28;20060;-77
2023/05/13 03:51:50;;;;;;;17.13;12.68;;;13.30;84.00;;;12.55;65.53;100894.47;4961413;28;20125;-77
2023/05/13 03:54:18;;;;;;;17.70;12.65;;;13.20;83.80;;;12.56;65.58;100895.28;4965505;28;20097;-77
2023/05/13 03:56:45;;;;;;;19.08;12.70;;;13.20;83.80;;;12.54;65.51;100898.19;4966025;28;20053;-77
2023/05/13 03:59:14;;;;;;;20.13;13.82;;;13.20;83.90;;;12.54;65.66;100894.66;4969491;28;20101;-77
2023/05/13 04:01:41;;;;;;;18.60;13.18;;;13.20;83.90;;;12.51;65.80;100901.28;4967099;28;20049;-77
2023/05/13 04:04:09;;;;;;;21.98;13.60;;;13.20;84.10;;;12.50;65.67;100899.66;4968991;28;20129;-77
2023/05/13 04:06:36;;;;;;;14.77;12.30;;;13.20;84.10;;;12.49;65.75;100911.38;4969787;28;20046;-77
2023/05/13 04:09:04;;;;;;;18.75;12.90;;;13.20;84.10;;;12.49;65.79;100907.88;4969445;28;20059;-77
2023/05/13 04:11:31;;;;;;;17.75;13.00;;;13.20;84.00;;;12.49;65.65;100913.22;4965308;28;20162;-77
2023/05/13 04:13:59;;;;;;;20.63;13.50;;;13.20;84.00;;;12.49;65.67;100915.88;4973266;28;20591;-78
2023/05/13 04:16:28;;;;;;;19.40;14.40;;;13.20;84.10;;;12.48;65.68;100917.75;4965190;28;20078;-77
2023/05/13 04:18:55;;;;;;;17.40;13.98;;;13.10;84.10;;;12.47;65.85;100917.97;4968750;28;20062;-78
2023/05/13 04:21:22;;;;;;;19.20;14.18;;;13.10;84.10;;;12.47;65.96;100920.66;4947111;28;20135;-77
2023/05/13 04:23:49;;;;;;;17.58;14.05;;;13.10;84.20;;;12.45;66.30;100912.03;4968079;28;20149;-78
2023/05/13 04:26:17;;;;;;;17.98;13.23;;;13.10;84.40;;;12.44;66.09;100921.06;4968649;28;20078;-77
2023/05/13 04:28:44;;;;;;;20.23;14.23;;;13.10;84.40;;;12.45;66.19;100920.06;4951460;28;20499;-77
2023/05/13 04:31:11;;;;;;;20.42;14.00;;;13.10;84.50;;;12.45;66.52;100930.75;4949678;28;20051;-77
2023/05/13 04:33:40;;;;;;;19.92;14.32;;;13.10;84.70;;;12.46;66.40;100927.84;4973248;28;20054;-80
2023/05/13 04:36:07;;;;;;;18.40;14.32;;;13.10;84.80;;;12.49;66.60;100923.91;4961576;28;20065;-76
2023/05/13 04:38:35;;;;;;;20.35;14.25;;;13.10;84.90;;;12.49;66.62;100930.13;4943843;28;20145;-77
2023/05/13 04:41:03;;;;;;;17.67;13.73;;;13.20;84.90;;;12.51;67.00;100932.56;4951838;28;20492;-77
2023/05/13 04:43:41;;;;;;;19.20;14.18;;;13.10;85.10;;;12.52;66.97;100928.84;4945381;28;20047;-76
2023/05/13 04:46:08;;;;;;;20.25;14.18;;;13.10;85.20;;;12.53;67.23;100928.63;4967709;28;20120;-76
2023/05/13 04:48:36;;;;;;;21.88;15.13;;;13.20;85.30;;;12.53;67.40;100933.97;4950787;28;20042;-76
2023/05/13 04:51:04;;;;;;;20.02;14.40;;;13.20;85.50;;;12.55;67.57;100929.25;4950295;28;20959;-76
2023/05/13 04:53:32;;;;;;;20.38;14.20;;;13.20;85.40;;;12.59;67.65;100930.47;4953246;28;20050;-76
2023/05/13 04:56:02;;;;;;;17.27;14.38;;;13.30;85.70;;;12.66;67.85;100933.13;4944064;28;20054;-76
2023/05/13 04:58:30;;;;;;;16.38;13.45;;;13.30;85.70;;;12.71;68.04;100930.63;4969324;28;20070;-76
2023/05/13 05:00:58;;;;;;;16.88;13.20;;;13.50;86.00;;;12.80;68.58;100931.19;4965209;28;20109;-76
2023/05/13 05:03:25;;;;;;;17.08;13.52;;;13.50;86.00;;;12.89;68.66;100936.09;4950441;28;20540;-77
2023/05/13 05:05:52;;;;;;;18.90;14.23;;;13.60;85.90;;;13.01;68.63;100932.72;4942419;28;20410;-76
2023/05/13 05:08:22;;;;;;;16.27;12.45;;;13.70;86.10;;;13.08;68.60;100931.66;4949579;28;20145;-76
2023/05/13 05:10:50;;;;;;;18.77;13.68;;;13.80;86.20;;;13.18;68.86;100939.19;4948862;28;20042;-76
2023/05/13 05:13:19;;;;;;;20.00;13.70;;;13.90;86.30;;;13.27;69.16;100937.09;4951844;28;20133;-76
2023/05/13 05:15:46;;;;;;;17.45;13.13;;;14.00;87.10;;;13.38;69.94;100939.91;4966000;28;20050;-76
2023/05/13 05:18:14;;;;;;;15.95;12.90;;;14.10;87.70;;;13.51;70.32;100938.97;4956270;28;20137;-76
2023/05/13 05:20:44;;;;;;;17.42;13.15;;;14.10;88.20;;;13.63;70.24;100939.91;4963897;28;20448;-77
2023/05/13 05:23:17;;;;;;;23.95;14.10;;;14.30;88.30;;;13.74;69.94;100940.22;4963241;28;20527;-76
2023/05/13 05:25:46;;;;;;;20.30;13.77;;;14.40;87.60;;;13.83;70.04;100942.41;4951927;28;20050;-76
2023/05/13 05:28:13;;;;;;;18.20;13.73;;;14.50;87.70;;;13.94;69.73;100946.22;4962355;28;20137;-76
2023/05/13 05:30:43;;;;;;;20.13;13.52;;;14.60;87.50;;;14.04;69.28;100943.84;4971148;28;20141;-76
2023/05/13 05:33:19;;;;;;;18.15;13.32;;;14.70;87.10;;;14.16;69.21;100944.75;4934686;28;20046;-76
2023/05/13 05:35:47;;;;;;;18.88;13.40;;;14.80;86.90;;;14.28;69.09;100952.88;4968642;28;20050;-76
2023/05/13 05:38:16;;;;;;;18.13;13.52;;;14.90;86.70;;;14.39;68.90;100946.75;4949052;28;20050;-86
2023/05/13 05:40:46;;;;;;;17.92;13.13;;;15.10;86.60;;;14.52;68.33;100950.34;4950373;28;20577;-78
2023/05/13 05:43:15;;;;;;;20.63;13.80;;;15.20;86.10;;;14.62;68.18;100962.19;4950013;28;20051;-78
2023/05/13 05:45:42;;;;;;;17.90;13.77;;;15.30;85.90;;;14.74;67.66;100954.22;4949791;28;20070;-79
2023/05/13 05:48:13;;;;;;;23.13;13.60;;;15.40;85.30;;;14.85;67.17;100961.50;4955861;28;20471;-79
2023/05/13 05:50:41;;;;;;;19.60;13.23;;;15.50;84.90;;;14.93;66.55;100963.88;4965091;28;20075;-79
2023/05/13 05:53:10;;;;;;;18.55;13.00;;;15.60;84.20;;;15.05;66.62;100965.75;4955283;28;20054;-79
2023/05/13 05:55:39;;;;;;;18.38;11.75;;;15.70;84.30;;;15.13;65.56;100963.59;4957804;28;20105;-79
2023/05/13 05:58:14;;;;;;;18.00;13.48;;;15.80;83.00;;;15.23;66.14;100954.16;4952244;28;20094;-79
2023/05/13 06:00:41;;;;;;;14.80;11.55;;;15.90;83.80;;;15.33;65.54;100965.97;4950320;28;20047;-79
2023/05/13 06:03:09;;;;;;;19.08;12.20;;;16.00;82.90;;;15.44;65.04;100970.53;4969918;28;20511;-78
2023/05/13 06:05:36;;;;;;;16.48;12.20;;;16.10;82.50;;;15.53;64.11;100954.09;4962138;28;20526;-78
2023/05/13 06:08:03;;;;;;;14.80;11.73;;;16.20;81.40;;;15.62;64.31;100958.06;4971356;28;20053;-78
2023/05/13 06:10:31;;;;;;;13.80;11.50;;;16.30;82.00;;;15.69;63.54;100956.09;4954388;28;20051;-78
2023/05/13 06:12:58;;;;;;;15.63;12.02;;;16.40;80.80;;;15.79;63.62;100950.97;4953247;28;20062;-78
2023/05/13 06:15:27;;;;;;;14.98;11.98;;;16.40;81.00;;;15.87;63.79;100964.06;4954341;28;20479;-78
2023/05/13 06:17:54;;;;;;;19.70;12.52;;;16.50;81.20;;;15.94;64.06;100962.06;4954877;28;20056;-78
2023/05/13 06:20:21;;;;;;;18.35;11.73;;;16.70;81.50;;;16.02;63.71;100960.91;4957404;28;20047;-78
2023/05/13 06:22:48;;;;;;;15.15;11.82;;;16.70;81.20;;;16.11;62.88;100958.69;4955600;28;20801;-80
2023/05/13 06:25:16;;;;;;;21.55;11.85;;;16.80;80.10;;;16.21;63.56;100961.59;4968084;28;20074;-83
2023/05/13 06:27:43;;;;;;;17.48;12.43;;;16.90;81.10;;;16.29;63.47;100960.41;4971323;28;20070;-84
2023/05/13 06:30:11;;;;;;;17.25;12.43;;;17.00;80.90;;;16.36;62.53;100956.53;4971578;28;20125;-84
2023/05/13 06:32:43;;;;;;;18.33;12.75;;;17.10;79.80;;;16.46;63.03;100966.69;4952186;28;20090;-84
2023/05/13 06:35:10;;;;;;;14.98;11.07;;;17.20;80.30;;;16.52;62.44;100967.63;4953834;28;20130;-84
2023/05/13 06:37:38;;;;;;;16.70;11.88;;;17.20;79.70;;;16.51;63.34;100963.28;4946807;29;20049;-84
2023/05/13 06:40:07;;;;;;;17.48;13.20;;;17.20;80.40;;;16.54;62.63;100962.78;4952119;28;20054;-84
2023/05/13 06:42:40;;;;;;;19.42;12.60;;;17.30;79.80;;;16.56;62.82;100960.69;4956917;28;20097;-84
2023/05/13 06:45:14;;;;;;;15.98;12.05;;;17.30;80.40;;;16.60;62.72;100967.25;4954555;28;20058;-83
2023/05/13 06:47:44;;;;;;;20.42;13.05;;;17.40;80.30;;;16.69;61.86;100976.59;4948753;28;20047;-83
2023/05/13 06:50:11;;;;;;;17.85;12.73;;;17.40;79.20;;;16.80;62.92;100969.56;4972793;28;20142;-83
2023/05/13 06:52:38;;;;;;;17.98;12.48;;;17.50;80.20;;;16.88;61.44;100971.84;4956550;28;20071;-82
2023/05/13 06:55:07;;;;;;;19.00;12.57;;;17.60;78.60;;;16.96;61.61;100976.84;4967899;28;20130;-82
2023/05/13 06:57:34;;;;;;;16.38;12.40;;;17.70;78.70;;;16.99;60.86;100977.19;4967550;28;20058;-83
2023/05/13 07:00:02;;;;;;;19.17;13.20;;;17.70;77.80;;;17.06;60.99;100989.72;4969179;28;20137;-84
2023/05/13 07:02:29;;;;;;;16.08;12.50;;;17.80;78.00;;;17.08;61.25;100984.88;4965822;28;20043;-84
2023/05/13 07:04:58;;;;;;;17.90;13.35;;;17.80;78.30;;;17.10;60.95;100988.97;4971650;28;20446;-84
2023/05/13 07:07:25;;;;;;;17.13;13.02;;;17.80;77.70;;;17.17;61.30;100984.25;4969969;28;20070;-84
2023/05/13 07:09:52;;;;;;;21.73;12.95;;;17.90;78.10;;;17.24;59.62;100994.91;4969118;28;20151;-84
2023/05/13 07:12:19;;;;;;;19.17;12.95;;;18.00;76.20;;;17.24;60.15;100989.50;4966286;28;20039;-83
2023/05/13 07:14:47;;;;;;;16.75;13.13;;;18.00;77.00;;;17.24;59.05;100992.22;4969629;28;20511;-84
2023/05/13 07:17:14;;;;;;;17.58;12.90;;;18.00;75.80;;;17.26;58.84;100998.16;4944904;28;20136;-84
2023/05/13 07:19:41;;;;;;;19.23;12.50;;;18.00;75.30;;;17.22;57.56;100986.22;4966360;28;20486;-84
2023/05/13 07:22:10;;;;;;;16.17;13.00;;;18.00;74.10;;;17.20;58.26;100977.56;4972024;28;20427;-86
2023/05/13 07:24:37;;;;;;;20.67;12.73;;;18.00;75.00;;;17.22;58.44;100986.22;4974491;28;20057;-92
2023/05/13 07:27:05;;;;;;;18.38;11.70;;;18.00;75.00;;;17.16;58.14;100988.00;4970671;28;20058;-93
2023/05/13 07:29:33;;;;;;;15.55;11.05;;;17.90;74.80;;;17.16;57.33;100984.50;4962306;28;20105;-93
2023/05/13 07:32:04;;;;;;;16.90;11.10;;;17.90;73.80;;;17.18;56.50;100987.78;4965518;28;20070;-91
2023/05/13 07:34:32;;;;;;;13.88;10.45;;;18.00;73.10;;;17.17;57.32;100984.25;4950238;28;20136;-86
2023/05/13 07:36:59;;;;;;;14.30;10.57;;;17.90;73.80;;;17.21;57.61;100979.19;4970685;28;20050;-91
2023/05/13 07:39:28;;;;;;;16.38;10.88;;;18.00;73.90;;;17.28;57.49;100977.19;4969272;28;20063;-89
2023/05/13 07:41:55;;;;;;;19.70;11.20;;;18.00;73.80;;;17.34;55.28;100970.00;4970340;28;20126;-79
2023/05/13 07:44:22;;;;;;;18.95;10.63;;;18.00;71.50;;;17.39;55.81;100970.91;4966684;28;20319;-93
2023/05/13 07:47:01;;;;;;;15.43;10.63;;;18.10;71.90;;;17.46;56.20;100971.53;4966113;28;20082;-94
2023/05/13 07:49:29;;;;;;;16.25;10.65;;;18.20;72.70;;;17.51;56.55;100966.22;4965914;28;20051;-90
2023/05/13 07:51:56;;;;;;;12.68;9.68;;;18.30;73.00;;;17.59;56.81;100975.00;4968639;28;20070;-92
2023/05/13 07:54:24;;;;;;;15.68;10.75;;;18.30;73.20;;;17.67;55.70;100970.00;4954026;28;20042;-91
2023/05/13 07:56:53;;;;;;;14.60;9.52;;;18.40;71.70;;;17.76;55.71;100956.94;4969011;28;20118;-91
2023/05/13 07:59:20;;;;;;;12.70;9.35;;;18.50;71.70;;;17.84;54.23;100963.81;4969240;28;20117;-90
2023/05/13 08:01:47;;;;;;;11.82;8.82;;;18.60;70.10;;;17.82;53.24;100966.75;4952955;28;20070;-90
2023/05/13 08:04:15;;;;;;;14.43;8.93;;;18.60;69.10;;;17.84;55.05;100964.63;4968441;28;20039;-92
2023/05/13 08:06:42;;;;;;;13.77;9.27;;;18.60;71.30;;;17.96;57.33;100964.53;4972647;28;20039;-91
2023/05/13 08:09:11;;;;;;;14.02;8.48;;;18.70;73.10;;;18.05;55.27;100962.22;4968850;28;20058;-92
2023/05/13 08:11:38;;;;;;;13.10;7.95;;;18.80;71.10;;;18.14;54.17;100961.53;4967704;28;20080;-91
2023/05/13 08:14:07;;;;;;;14.93;8.32;;;18.80;69.90;;;18.21;54.08;100955.97;4951143;28;20046;-92
2023/05/13 08:16:35;;;;;;;15.93;9.35;;;19.20;69.90;;;18.33;57.08;100953.16;4953370;28;20051;-89
2023/05/13 08:19:03;;;;;;;14.48;8.23;;;19.10;73.10;;;18.41;52.91;100950.81;4968805;28;20066;-89
2023/05/13 08:21:31;;;;;;;11.43;7.68;;;19.20;68.30;;;18.50;53.27;100952.03;4950157;28;20097;-90
2023/05/13 08:23:58;;;;;;;13.50;7.35;;;19.30;68.50;;;18.62;54.64;100961.88;4965967;28;20407;-90
2023/05/13 08:26:25;;;;;;;11.23;6.65;;;19.10;69.90;;;18.65;50.64;100954.09;4968622;28;20050;-91
2023/05/13 08:28:53;;;;;;;9.50;6.65;;;19.40;65.40;;;18.67;49.87;100953.81;4969356;28;20039;-91
2023/05/13 08:31:23;;;;;;;10.93;7.20;;;19.40;64.40;;;18.74;51.07;100957.19;4967777;28;20052;-91
2023/05/13 08:33:52;;;;;;;12.32;7.15;;;19.60;66.40;;;18.81;52.14;100955.09;4966826;28;20039;-90
2023/05/13 08:36:20;;;;;;;11.73;7.18;;;19.60;66.80;;;18.89;52.95;100956.53;4967940;28;20105;-91
2023/05/13 08:38:47;;;;;;;14.40;7.72;;;19.70;68.80;;;18.97;52.38;100950.66;4954153;28;20158;-92
2023/05/13 08:41:15;;;;;;;11.50;7.55;;;19.80;67.50;;;19.07;53.36;100958.06;4967940;28;20054;-91
2023/05/13 08:43:44;;;;;;;11.15;7.05;;;19.80;69.30;;;19.11;53.50;100960.00;4968668;28;20042;-94
2023/05/13 08:46:12;;;;;;;16.25;8.07;;;19.90;68.70;;;19.21;51.02;100959.28;4968550;28;20050;-86
2023/05/13 08:48:42;;;;;;;9.98;7.18;;;20.00;65.20;;;19.22;50.00;100955.50;4968679;28;20050;-84
2023/05/13 08:51:10;;;;;;;13.38;7.72;;;20.00;64.90;;;19.17;48.16;100960.84;4965083;28;20051;-85
2023/05/13 08:53:39;;;;;;;14.10;7.20;;;20.00;62.30;;;19.17;49.72;100964.38;4960620;28;20046;-85
2023/05/13 08:56:09;;;;;;;13.65;7.10;;;20.00;64.40;;;19.17;50.80;100966.25;4964827;28;20054;-87
2023/05/13 08:58:36;;;;;;;14.65;7.78;;;20.00;65.40;;;19.26;50.86;100964.72;4966818;28;20051;-87
2023/05/13 09:01:05;;;;;;;13.10;7.35;;;20.10;65.10;;;19.27;50.83;100963.66;4961759;28;20054;-87
2023/05/13 09:03:35;;;;;;;13.27;6.75;;;20.10;65.20;;;19.31;48.76;100970.19;4964974;28;20050;-87
2023/05/13 09:06:04;;;;;;;11.55;7.32;;;20.10;62.80;;;19.26;47.27;100964.72;4969259;28;20128;-87
2023/05/13 09:08:32;;;;;;;10.15;6.70;;;20.10;60.40;;;19.28;48.06;100954.47;4969665;28;20049;-85
2023/05/13 09:10:59;;;;;;;16.08;6.40;;;20.10;61.60;;;19.23;46.00;100957.16;4959845;28;20574;-83
2023/05/13 09:13:27;;;;;;;11.35;6.35;;;20.10;59.30;;;19.17;46.43;100964.38;4965073;28;20130;-87
2023/05/13 09:15:54;;;;;;;10.07;6.38;;;20.00;59.30;;;19.15;46.82;100955.72;4965279;28;20138;-86
2023/05/13 09:18:21;;;;;;;13.20;6.63;;;20.00;59.60;;;19.19;49.34;100959.53;4964432;28;20503;-90
2023/05/13 09:20:49;;;;;;;13.93;6.65;;;20.00;62.90;;;19.22;47.51;100960.91;4973105;28;20057;-88
2023/05/13 09:23:18;;;;;;;13.40;6.53;;;20.00;60.40;;;19.19;46.33;100954.13;4972482;28;20054;-87
2023/05/13 09:25:45;;;;;;;12.18;6.43;;;20.00;59.30;;;19.23;47.02;100959.84;4969861;28;20043;-86
2023/05/13 09:28:15;;;;;;;10.32;6.60;;;20.00;60.40;;;19.23;46.76;100955.25;4955277;28;20447;-87
2023/05/13 09:30:44;;;;;;;13.93;6.70;;;20.00;59.90;;;19.20;45.77;100954.94;4972970;28;20053;-87
2023/05/13 09:33:13;;;;;;;10.82;6.53;;;20.00;58.40;;;19.17;45.35;100956.25;4972896;28;20103;-86
2023/05/13 09:35:44;;;;;;;9.75;5.93;;;20.00;58.40;;;19.15;46.58;100942.19;4971360;28;20567;-86
2023/05/13 09:38:18;;;;;;;11.95;5.72;;;20.00;59.30;;;19.28;47.56;100933.66;4973370;28;20121;-86
2023/05/13 09:40:52;;;;;;;17.23;6.38;;;20.10;60.90;;;19.29;46.97;100939.88;4971681;28;20415;-81
2023/05/13 09:43:21;;;;;;;9.98;5.55;;;20.10;60.20;;;19.39;48.63;100933.75;4973207;28;20055;-82
2023/05/13 09:45:52;;;;;;;10.23;5.47;;;20.20;61.90;;;19.51;47.83;100937.88;4970925;28;20050;-80
2023/05/13 09:48:20;;;;;;;;;;;20.30;61.30;;;19.47;45.77;100923.28;4969847;28;20100;-80
2023/05/13 09:50:50;;;;;;;9.07;5.60;;;20.30;58.70;;;19.48;44.90;100916.78;4967755;28;19922;-80
2023/05/13 09:53:19;;;;;;;13.85;5.00;;;20.30;57.70;;;19.52;46.72;100925.16;4971001;28;20514;-84
2023/05/13 09:55:47;;;;;;;7.85;4.97;;;20.30;59.70;;;19.55;44.94;100922.75;4973854;28;20042;-85
2023/05/13 09:58:15;;;;;;;10.65;5.45;;;20.40;57.30;;;19.60;44.65;100923.91;4972625;28;20055;-85
2023/05/13 10:00:43;;;;;;;8.13;4.88;;;20.40;57.10;;;19.53;42.54;100919.50;4966532;28;20055;-81
2023/05/13 10:03:11;;;;;;;9.20;4.57;;;20.40;54.80;;;19.56;43.70;100916.28;4968533;28;20043;-80
2023/05/13 10:05:39;;;;;;;6.93;3.80;;;20.40;56.20;;;19.63;44.57;100916.09;4972388;28;20055;-79
2023/05/13 10:08:09;;;;;;;7.82;4.60;;;20.50;57.30;;;19.67;44.69;100919.09;4963521;28;20081;-79
2023/05/13 10:10:38;;;;;;;11.23;5.40;;;20.50;57.40;;;19.70;44.80;100913.16;4970051;28;20043;-79